Time;durP1;ratioP1;P1;durP2;ratioP2;P2;SDS_P1;SDS_P2;PMS_P1;PMS_P2;Temp;Humidity;BMP_temperature;BMP_pressure;BME280_temperature;BME280_humidity;BME280_pressure;Samples;Min_cycle;Max_cycle;Signal;HPM_P1;HPM_P2
2023/01/23 00:01:05;;;;;;;42.45;15.23;;;;;;;0.65;100.00;103512.44;4987327;28;20026;-91
2023/01/23 00:03:32;;;;;;;41.03;15.45;;;;;;;0.69;100.00;103514.38;4987817;28;20468;-91
2023/01/23 00:05:59;;;;;;;41.53;15.40;;;;;;;0.67;100.00;103510.88;4981632;28;20037;-91
2023/01/23 00:08:24;;;;;;;44.08;15.93;;;;;;;0.63;100.00;103502.94;4986555;28;20061;-89
2023/01/23 00:10:50;;;;;;;43.08;14.77;;;;;;;0.64;100.00;103509.81;4979539;28;20014;-91
2023/01/23 00:13:16;;;;;;;43.80;14.80;;;;;;;0.62;100.00;103506.25;4986455;28;20035;-91
2023/01/23 00:15:41;;;;;;;45.05;15.02;;;;;;;0.60;100.00;103505.31;4983776;28;20456;-90
2023/01/23 00:18:07;;;;;;;45.20;14.85;;;;;;;0.60;100.00;103503.66;4979966;28;20105;-91
2023/01/23 00:20:32;;;;;;;47.13;15.55;;;;;;;0.54;100.00;103500.72;4990448;28;20049;-90
2023/01/23 00:22:57;;;;;;;39.47;14.45;;;;;;;0.56;100.00;103504.25;4969033;28;20022;-91
2023/01/23 00:25:23;;;;;;;41.47;14.85;;;;;;;0.54;100.00;103507.50;4991730;28;20384;-90
2023/01/23 00:27:48;;;;;;;42.85;14.63;;;;;;;0.55;100.00;103509.25;4968014;28;20054;-91
2023/01/23 00:30:14;;;;;;;39.78;14.43;;;;;;;0.56;100.00;103508.44;4985186;28;20042;-91
2023/01/23 00:32:40;;;;;;;40.72;14.55;;;;;;;0.56;100.00;103511.88;4984804;28;20050;-91
2023/01/23 00:35:06;;;;;;;44.33;15.23;;;;;;;0.59;100.00;103523.97;4989060;28;20141;-91
2023/01/23 00:37:31;;;;;;;39.25;14.52;;;;;;;0.58;100.00;103519.66;4987555;28;20056;-91
2023/01/23 00:39:56;;;;;;;45.33;15.85;;;;;;;0.56;100.00;103526.31;4988022;28;20113;-91
2023/01/23 00:42:21;;;;;;;45.17;16.00;;;;;;;0.56;100.00;103527.19;4976140;28;20021;-91
2023/01/23 00:44:47;;;;;;;45.08;15.57;;;;;;;0.57;100.00;103522.97;4988407;28;20037;-91
2023/01/23 00:47:12;;;;;;;41.97;15.38;;;;;;;0.59;100.00;103537.59;4992374;28;20368;-91
2023/01/23 00:49:37;;;;;;;44.90;16.52;;;;;;;0.57;100.00;103523.88;4985084;28;20526;-91
2023/01/23 00:52:03;;;;;;;42.78;15.45;;;;;;;0.57;100.00;103528.09;4992631;28;20464;-91
2023/01/23 00:54:28;;;;;;;41.85;14.55;;;;;;;0.57;100.00;103518.75;4973227;28;20472;-91
2023/01/23 00:56:53;;;;;;;43.63;14.63;;;;;;;0.61;100.00;103530.06;4989376;28;20037;-91
2023/01/23 00:59:19;;;;;;;44.35;14.98;;;;;;;0.60;100.00;103523.19;4973671;28;20033;-91
2023/01/23 01:01:44;;;;;;;40.38;13.52;;;;;;;0.63;100.00;103531.00;4990064;28;20030;-91
2023/01/23 01:04:10;;;;;;;35.60;13.93;;;;;;;0.60;100.00;103523.19;4986672;28;20110;-91
2023/01/23 01:06:35;;;;;;;42.53;14.95;;;;;;;0.62;100.00;103526.69;4991074;28;20064;-92
2023/01/23 01:09:02;;;;;;;39.30;14.18;;;;;;;0.63;100.00;103526.78;4990716;28;20029;-91
2023/01/23 01:11:27;;;;;;;40.97;14.82;;;;;;;0.62;100.00;103529.22;4975065;28;20030;-91
2023/01/23 01:13:53;;;;;;;43.22;14.88;;;;;;;0.62;100.00;103540.31;4989459;28;20033;-91
2023/01/23 01:16:18;;;;;;;38.70;14.27;;;;;;;0.64;100.00;103527.66;4987923;28;20076;-91
2023/01/23 01:18:46;;;;;;;40.92;14.95;;;;;;;0.64;100.00;103522.56;4983588;28;20510;-91
2023/01/23 01:21:13;;;;;;;42.50;16.05;;;;;;;0.65;100.00;103524.31;4974687;28;20030;-90
2023/01/23 01:23:39;;;;;;;43.10;15.10;;;;;;;0.64;100.00;103535.31;4991027;28;20491;-91
2023/01/23 01:26:06;;;;;;;43.30;15.05;;;;;;;0.63;100.00;103539.53;4986789;28;20647;-90
2023/01/23 01:28:32;;;;;;;42.35;14.10;;;;;;;0.62;100.00;103540.31;4987845;28;20049;-91
2023/01/23 01:31:04;;;;;;;40.67;14.70;;;;;;;0.60;100.00;103539.38;4989855;28;20046;-91
2023/01/23 01:33:30;;;;;;;37.17;15.02;;;;;;;0.61;100.00;103542.81;4990979;28;20623;-91
2023/01/23 01:35:55;;;;;;;41.85;15.02;;;;;;;0.60;100.00;103543.59;4992191;28;20033;-91
2023/01/23 01:38:22;;;;;;;41.33;14.93;;;;;;;0.62;100.00;103553.09;4987531;28;20086;-91
2023/01/23 01:40:47;;;;;;;44.42;14.55;;;;;;;0.62;100.00;103544.53;4981645;28;20488;-91
2023/01/23 01:43:25;;;;;;;39.78;13.90;;;;;;;0.68;100.00;103553.44;4986216;28;20143;-90
2023/01/23 01:46:11;;;;;;;44.15;15.07;;;;;;;0.69;100.00;103555.22;4965570;28;20469;-91
2023/01/23 01:48:42;;;;;;;39.15;14.07;;;;;;;0.70;100.00;103556.09;4972973;28;20491;-91
2023/01/23 01:51:31;;;;;;;38.78;13.65;;;;;;;0.71;100.00;103556.19;4974243;28;20030;-91
2023/01/23 01:54:23;;;;;;;43.17;14.77;;;;;;;0.69;100.00;103554.34;4973409;28;20065;-91
2023/01/23 01:56:54;;;;;;;41.72;14.43;;;;;;;0.66;100.00;103551.63;4983207;28;20034;-91
2023/01/23 01:59:22;;;;;;;45.75;15.32;;;;;;;0.63;100.00;103554.84;4974206;28;20175;-91
2023/01/23 02:01:52;;;;;;;41.47;14.82;;;;;;;0.64;100.00;103543.88;4981020;28;20116;-91
2023/01/23 02:04:18;;;;;;;39.83;14.50;;;;;;;0.62;100.00;103547.97;4972613;28;20514;-90
2023/01/23 02:06:44;;;;;;;40.00;14.70;;;;;;;0.62;100.00;103542.88;4969426;28;20054;-91
2023/01/23 02:09:16;;;;;;;43.22;15.43;;;;;;;0.63;100.00;103547.19;4987681;28;20018;-91
2023/01/23 02:11:42;;;;;;;39.90;14.07;;;;;;;0.59;100.00;103545.25;4969041;28;20058;-91
2023/01/23 02:14:09;;;;;;;43.17;14.85;;;;;;;0.62;100.00;103547.97;4973381;28;20064;-91
2023/01/23 02:16:39;;;;;;;38.70;14.88;;;;;;;0.63;100.00;103543.75;4972494;28;20034;-91
2023/01/23 02:19:17;;;;;;;38.30;14.15;;;;;;;0.60;100.00;103544.47;4989504;28;20030;-91
2023/01/23 02:21:46;;;;;;;40.58;14.57;;;;;;;0.59;100.00;103539.28;4961964;28;20026;-91
2023/01/23 02:24:24;;;;;;;46.38;15.15;;;;;;;0.61;100.00;103543.69;4990407;28;20030;-91
2023/01/23 02:26:49;;;;;;;41.33;14.32;;;;;;;0.60;100.00;103536.81;4971288;28;20566;-90
2023/01/23 02:29:15;;;;;;;43.53;15.82;;;;;;;0.62;100.00;103531.78;4981113;28;20019;-90
2023/01/23 02:31:42;;;;;;;47.58;15.90;;;;;;;0.68;100.00;103537.28;4984050;28;20077;-90
2023/01/23 02:34:10;;;;;;;42.95;14.70;;;;;;;0.69;100.00;103537.34;4975087;28;20062;-90
2023/01/23 02:36:35;;;;;;;46.05;15.13;;;;;;;0.70;100.00;103539.13;4973257;28;20430;-90
2023/01/23 02:39:03;;;;;;;44.88;15.80;;;;;;;0.71;100.00;103543.44;4985473;28;20087;-90
2023/01/23 02:41:31;;;;;;;45.35;15.40;;;;;;;0.71;100.00;103553.66;4981626;28;20034;-90
2023/01/23 02:44:01;;;;;;;44.55;15.30;;;;;;;0.73;100.00;103541.00;4989459;28;20026;-90
2023/01/23 02:46:26;;;;;;;44.85;15.13;;;;;;;0.74;100.00;103551.28;4988073;28;20030;-90
2023/01/23 02:48:52;;;;;;;41.00;15.18;;;;;;;0.75;100.00;103542.81;4973107;28;20049;-90
2023/01/23 02:51:19;;;;;;;46.45;15.13;;;;;;;0.75;100.00;103537.72;4984680;28;20659;-92
2023/01/23 02:53:45;;;;;;;43.50;15.25;;;;;;;0.76;100.00;103541.16;4989338;28;20380;-90
2023/01/23 02:56:10;;;;;;;45.20;15.98;;;;;;;0.75;100.00;103530.06;4981062;28;20075;-91
2023/01/23 03:01:19;;;;;;;48.30;15.77;;;;;;;0.72;100.00;103529.91;4988142;28;20073;-92
2023/01/23 03:03:45;;;;;;;43.92;16.20;;;;;;;0.76;100.00;103538.59;4989122;28;20057;-91
2023/01/23 03:06:11;;;;;;;42.35;15.60;;;;;;;0.77;100.00;103541.25;4986912;28;20038;-90
2023/01/23 03:08:46;;;;;;;41.55;14.88;;;;;;;0.79;100.00;103544.78;4990662;28;20109;-91
2023/01/23 03:11:11;;;;;;;47.88;15.00;;;;;;;0.78;100.00;103544.69;4978893;28;20080;-91
2023/01/23 03:13:36;;;;;;;50.50;15.82;;;;;;;0.82;100.00;103551.72;4980653;28;20034;-91
2023/01/23 03:16:02;;;;;;;43.13;15.93;;;;;;;0.83;100.00;103543.28;4968897;28;20026;-90
2023/01/23 03:18:29;;;;;;;46.30;15.23;;;;;;;0.86;100.00;103542.59;4986601;28;20624;-91
2023/01/23 03:20:55;;;;;;;45.22;16.67;;;;;;;0.85;100.00;103543.38;4978507;28;20407;-90
2023/01/23 03:23:20;;;;;;;42.03;14.60;;;;;;;0.85;100.00;103538.28;4980851;28;20745;-90
2023/01/23 03:25:47;;;;;;;49.83;16.20;;;;;;;0.85;100.00;103541.72;4966721;28;20027;-90
2023/01/23 03:30:57;;;;;;;43.37;14.67;;;;;;;0.83;100.00;103544.94;4990410;28;20109;-90
2023/01/23 03:33:22;;;;;;;46.65;16.95;;;;;;;0.87;100.00;103555.47;4989989;28;20300;-90
2023/01/23 03:35:48;;;;;;;46.08;15.27;;;;;;;0.86;100.00;103553.69;4988720;28;20479;-90
2023/01/23 03:38:16;;;;;;;48.00;16.40;;;;;;;0.86;100.00;103548.59;4994467;28;20576;-90
2023/01/23 03:43:30;;;;;;;46.40;15.23;;;;;;;0.85;100.00;103551.03;4986333;28;20097;-90
2023/01/23 03:45:56;;;;;;;44.65;15.02;;;;;;;0.85;100.00;103541.72;4991669;28;20392;-90
2023/01/23 03:48:21;;;;;;;49.40;15.80;;;;;;;0.86;100.00;103547.69;4990901;28;20458;-91
2023/01/23 03:50:46;;;;;;;53.92;16.70;;;;;;;0.83;100.00;103545.84;4990593;28;20076;-90
2023/01/23 03:53:12;;;;;;;46.50;15.77;;;;;;;0.87;100.00;103558.00;4973681;28;20026;-90
2023/01/23 03:55:37;;;;;;;45.35;15.55;;;;;;;0.88;100.00;103558.88;4989126;28;20092;-90
2023/01/23 03:58:02;;;;;;;44.92;15.32;;;;;;;0.86;100.00;103561.34;4975574;28;20030;-90
2023/01/23 04:00:28;;;;;;;49.78;15.93;;;;;;;0.89;100.00;103558.09;4983937;28;20077;-90
2023/01/23 04:02:53;;;;;;;44.45;14.82;;;;;;;0.88;100.00;103552.13;4976068;28;20088;-90
2023/01/23 04:05:18;;;;;;;47.35;15.15;;;;;;;0.90;100.00;103552.19;4983843;28;20038;-90
2023/01/23 04:07:43;;;;;;;50.65;16.33;;;;;;;0.90;100.00;103552.19;4975677;28;20030;-90
2023/01/23 04:10:09;;;;;;;50.42;16.40;;;;;;;0.90;100.00;103557.28;4989706;28;20383;-90
2023/01/23 04:12:34;;;;;;;52.38;16.30;;;;;;;0.90;100.00;103554.72;4974042;28;20530;-91
2023/01/23 04:14:59;;;;;;;49.15;15.38;;;;;;;0.88;100.00;103551.22;4972314;28;20037;-91
2023/01/23 04:17:25;;;;;;;47.85;15.52;;;;;;;0.90;100.00;103554.72;4991212;28;20542;-90
2023/01/23 04:19:50;;;;;;;44.72;16.05;;;;;;;0.91;100.00;103553.94;4982611;28;20412;-90
2023/01/23 04:22:15;;;;;;;51.50;15.95;;;;;;;0.92;100.00;103553.16;4987367;28;20042;-90
2023/01/23 04:24:41;;;;;;;52.03;16.55;;;;;;;0.94;100.00;103549.03;4990562;28;20407;-90
2023/01/23 04:27:06;;;;;;;51.78;17.05;;;;;;;0.93;100.00;103550.72;4989382;28;20085;-91
2023/01/23 04:29:32;;;;;;;49.70;15.25;;;;;;;0.93;100.00;103555.81;4988066;28;20018;-90
2023/01/23 04:31:57;;;;;;;47.60;16.95;;;;;;;0.92;100.00;103559.16;4983206;28;20053;-91
2023/01/23 04:34:23;;;;;;;49.90;15.88;;;;;;;0.94;100.00;103561.81;4993626;28;20343;-90
2023/01/23 04:36:48;;;;;;;51.30;16.50;;;;;;;0.94;100.00;103565.25;4990325;28;20530;-90
2023/01/23 04:39:13;;;;;;;50.25;16.55;;;;;;;0.93;100.00;103560.91;4976067;28;20030;-90
2023/01/23 04:41:39;;;;;;;49.78;16.25;;;;;;;0.95;100.00;103568.69;4986363;28;20042;-90
2023/01/23 04:44:19;;;;;;;48.40;15.60;;;;;;;0.94;100.00;103562.69;4984058;28;20026;-91
2023/01/23 04:46:46;;;;;;;43.72;15.80;;;;;;;0.94;100.00;103567.78;4983127;28;20080;-90
2023/01/23 04:49:11;;;;;;;51.03;16.73;;;;;;;0.93;100.00;103565.16;4990844;28;20340;-90
2023/01/23 04:51:37;;;;;;;51.42;16.55;;;;;;;0.91;100.00;103561.59;4991633;28;20491;-89
2023/01/23 04:54:02;;;;;;;49.92;16.98;;;;;;;0.91;100.00;103559.06;5002674;28;20033;-90
2023/01/23 04:56:28;;;;;;;50.90;16.65;;;;;;;0.94;100.00;103569.47;4992941;28;20026;-90
2023/01/23 04:58:53;;;;;;;53.80;17.13;;;;;;;0.93;100.00;103567.69;4966200;28;20121;-90
2023/01/23 05:01:22;;;;;;;53.63;17.08;;;;;;;0.95;100.00;103571.22;4987132;28;20554;-90
2023/01/23 05:03:51;;;;;;;51.35;16.95;;;;;;;0.98;100.00;103574.84;4992164;28;20058;-90
2023/01/23 05:06:17;;;;;;;53.47;15.50;;;;;;;0.95;100.00;103567.00;4989109;28;20026;-90
2023/01/23 05:08:42;;;;;;;48.80;16.08;;;;;;;0.98;100.00;103572.28;4989619;28;20076;-90
2023/01/23 05:11:07;;;;;;;47.25;16.13;;;;;;;1.00;100.00;103572.38;4983884;28;20565;-90
2023/01/23 05:13:32;;;;;;;48.83;15.60;;;;;;;1.00;100.00;103580.03;4984368;28;20053;-91
2023/01/23 05:15:58;;;;;;;49.95;16.13;;;;;;;1.00;100.00;103577.47;4992062;28;20435;-91
2023/01/23 05:18:23;;;;;;;48.67;15.43;;;;;;;1.01;100.00;103580.13;4968871;28;20464;-90
2023/01/23 05:20:48;;;;;;;48.53;16.13;;;;;;;1.03;100.00;103575.97;4972306;28;20050;-90
2023/01/23 05:23:14;;;;;;;51.20;17.25;;;;;;;1.01;100.00;103574.16;4992433;28;20026;-90
2023/01/23 05:25:39;;;;;;;50.10;16.98;;;;;;;0.98;100.00;103571.41;4982897;28;20034;-89
2023/01/23 05:28:04;;;;;;;51.47;16.63;;;;;;;0.98;100.00;103579.94;4983268;28;20033;-89
2023/01/23 05:30:30;;;;;;;49.35;16.85;;;;;;;1.00;100.00;103577.47;4974209;28;20117;-90
2023/01/23 05:32:55;;;;;;;49.50;17.13;;;;;;;1.00;100.00;103580.03;4984568;28;20018;-90
2023/01/23 05:35:20;;;;;;;49.10;17.40;;;;;;;1.01;100.00;103592.91;4972555;28;20028;-90
2023/01/23 05:37:50;;;;;;;50.15;16.58;;;;;;;0.97;100.00;103582.41;4988051;28;20376;-90
2023/01/23 05:40:16;;;;;;;46.33;16.08;;;;;;;1.02;100.00;103583.56;4968028;28;20035;-90
2023/01/23 05:42:41;;;;;;;52.72;16.95;;;;;;;1.04;100.00;103594.75;4988107;28;20030;-90
2023/01/23 05:45:07;;;;;;;50.03;16.83;;;;;;;1.03;100.00;103593.84;4982332;28;20034;-90
2023/01/23 05:47:33;;;;;;;52.10;17.85;;;;;;;1.04;100.00;103595.63;4986775;28;20038;-91
2023/01/23 05:49:58;;;;;;;45.60;16.15;;;;;;;1.03;100.00;103601.50;4980905;28;20030;-92
2023/01/23 05:52:24;;;;;;;56.92;17.65;;;;;;;1.04;100.00;103597.28;4982329;28;20033;-91
2023/01/23 05:54:49;;;;;;;45.95;16.02;;;;;;;1.02;100.00;103589.56;4994857;28;20069;-91
2023/01/23 05:57:15;;;;;;;45.80;16.45;;;;;;;1.03;100.00;103587.88;4986407;28;20053;-91
2023/01/23 05:59:40;;;;;;;50.88;15.77;;;;;;;1.05;100.00;103588.84;4984525;28;20415;-91
2023/01/23 06:02:07;;;;;;;46.55;16.77;;;;;;;1.04;100.00;103592.19;5003906;28;20128;-90
2023/01/23 06:04:32;;;;;;;48.30;16.63;;;;;;;1.05;100.00;103596.50;4996924;28;20113;-91
2023/01/23 06:06:57;;;;;;;45.38;16.60;;;;;;;1.04;100.00;103604.94;4995371;28;20120;-90
2023/01/23 06:09:23;;;;;;;46.83;15.88;;;;;;;1.05;100.00;103606.72;4970970;28;20031;-91
2023/01/23 06:11:48;;;;;;;46.42;16.38;;;;;;;1.09;100.00;103609.53;4976677;28;20664;-91
2023/01/23 06:14:13;;;;;;;44.05;14.98;;;;;;;1.12;100.00;103604.63;4973970;28;20078;-91
2023/01/23 06:16:39;;;;;;;48.70;16.10;;;;;;;1.09;100.00;103601.03;4982154;28;20124;-90
2023/01/23 06:19:04;;;;;;;47.15;16.15;;;;;;;1.10;100.00;103621.53;4993188;28;20038;-91
2023/01/23 06:21:30;;;;;;;44.80;15.25;;;;;;;1.12;100.00;103619.06;4979320;28;20022;-90
2023/01/23 06:23:57;;;;;;;49.03;16.50;;;;;;;1.09;100.00;103613.78;5000523;28;20032;-92
2023/01/23 06:26:22;;;;;;;45.58;16.02;;;;;;;1.12;100.00;103627.63;4973546;28;20050;-90
2023/01/23 06:28:48;;;;;;;42.95;15.70;;;;;;;1.13;100.00;103620.84;4985319;28;20058;-90
2023/01/23 06:31:13;;;;;;;48.28;16.60;;;;;;;1.12;100.00;103614.84;4973192;28;20648;-91
2023/01/23 06:33:38;;;;;;;45.95;14.95;;;;;;;1.13;100.00;103616.59;4991106;28;20069;-92
2023/01/23 06:36:05;;;;;;;47.00;15.55;;;;;;;1.16;100.00;103613.38;4987634;28;20109;-93
2023/01/23 06:38:31;;;;;;;52.53;16.30;;;;;;;1.18;100.00;103622.88;4992099;28;20038;-93
2023/01/23 06:40:56;;;;;;;44.78;15.73;;;;;;;1.19;100.00;103626.31;4978677;28;20034;-93
2023/01/23 06:43:23;;;;;;;44.65;15.57;;;;;;;1.19;100.00;103624.63;4985666;28;20035;-90
2023/01/23 06:45:48;;;;;;;45.58;16.13;;;;;;;1.18;100.00;103611.75;4986657;28;20109;-92
2023/01/23 06:48:14;;;;;;;48.40;16.55;;;;;;;1.18;100.00;103619.44;4991865;28;20113;-91
2023/01/23 06:50:41;;;;;;;46.42;15.93;;;;;;;1.22;100.00;103616.28;4964523;28;20038;-91
2023/01/23 06:53:06;;;;;;;44.55;16.75;;;;;;;1.21;100.00;103629.84;4986585;28;20037;-91
2023/01/23 06:55:32;;;;;;;45.35;14.57;;;;;;;1.22;100.00;103631.59;4985021;28;20074;-91
2023/01/23 06:57:57;;;;;;;46.80;16.00;;;;;;;1.22;100.00;103631.59;4974036;28;20098;-91
2023/01/23 07:00:23;;;;;;;45.40;16.13;;;;;;;1.23;100.00;103633.34;4979972;28;20037;-92
2023/01/23 07:02:48;;;;;;;41.15;14.90;;;;;;;1.24;100.00;103636.78;4990744;28;20030;-90
2023/01/23 07:05:14;;;;;;;41.83;14.73;;;;;;;1.22;100.00;103630.72;4976623;28;20472;-90
2023/01/23 07:07:39;;;;;;;42.78;15.93;;;;;;;1.25;100.00;103638.56;4997456;28;20022;-92
2023/01/23 07:10:05;;;;;;;46.30;17.58;;;;;;;1.24;100.00;103639.34;4993999;28;20385;-91
2023/01/23 07:12:31;;;;;;;44.05;15.50;;;;;;;1.24;100.00;103645.31;4979418;28;20117;-90
2023/01/23 07:14:56;;;;;;;45.70;15.60;;;;;;;1.24;100.00;103644.44;4989912;28;20030;-90
2023/01/23 07:17:21;;;;;;;44.67;16.08;;;;;;;1.23;100.00;103646.13;4978149;28;20045;-91
2023/01/23 07:19:47;;;;;;;42.75;15.55;;;;;;;1.25;100.00;103651.31;4983556;28;20101;-92
2023/01/23 07:22:17;;;;;;;43.50;16.17;;;;;;;1.22;100.00;103646.06;4972980;28;20065;-91
2023/01/23 07:24:42;;;;;;;47.60;17.67;;;;;;;1.21;100.00;103646.84;4977133;28;20030;-91
2023/01/23 07:27:08;;;;;;;40.92;15.80;;;;;;;1.20;100.00;103651.06;4976117;28;20350;-93
2023/01/23 07:29:33;;;;;;;43.53;16.27;;;;;;;1.20;100.00;103658.72;5000052;28;20026;-92
2023/01/23 07:31:59;;;;;;;43.08;16.15;;;;;;;1.23;100.00;103661.44;4994072;28;20026;-93
2023/01/23 07:34:25;;;;;;;47.63;16.02;;;;;;;1.24;100.00;103662.34;5004676;28;20022;-93
2023/01/23 07:36:50;;;;;;;46.95;16.67;;;;;;;1.22;100.00;103667.38;5002938;28;20041;-92
2023/01/23 07:39:16;;;;;;;44.50;15.88;;;;;;;1.23;100.00;103663.16;4987163;28;20703;-92
2023/01/23 07:41:41;;;;;;;38.90;15.20;;;;;;;1.26;100.00;103671.84;4984194;28;20117;-91
2023/01/23 07:44:07;;;;;;;43.63;16.13;;;;;;;1.27;100.00;103680.41;5003959;28;20100;-91
2023/01/23 07:46:32;;;;;;;45.95;16.23;;;;;;;1.27;100.00;103675.31;4992102;28;20495;-93
2023/01/23 07:48:57;;;;;;;43.50;15.80;;;;;;;1.31;100.00;103682.34;4967865;28;20026;-93
2023/01/23 07:51:22;;;;;;;47.30;16.80;;;;;;;1.32;100.00;103673.88;4995859;28;20025;-93
2023/01/23 07:53:48;;;;;;;42.63;15.60;;;;;;;1.33;100.00;103679.09;4979338;28;20030;-92
2023/01/23 07:56:13;;;;;;;43.65;15.13;;;;;;;1.36;100.00;103683.53;5001703;28;20022;-92
2023/01/23 07:58:38;;;;;;;44.28;16.20;;;;;;;1.33;100.00;103681.66;4997281;28;20034;-92
2023/01/23 08:01:09;;;;;;;42.53;15.68;;;;;;;1.41;100.00;103689.78;4976185;28;20369;-91
2023/01/23 08:03:34;;;;;;;43.28;15.73;;;;;;;1.42;100.00;103681.34;4997537;28;20026;-92
2023/01/23 08:05:59;;;;;;;43.83;17.20;;;;;;;1.42;100.00;103692.44;4997827;28;20383;-91
2023/01/23 08:08:25;;;;;;;46.20;18.02;;;;;;;1.43;100.00;103689.06;4979514;28;20089;-91
2023/01/23 08:10:50;;;;;;;43.97;15.95;;;;;;;1.48;100.00;103697.91;4999402;28;20399;-92
2023/01/23 08:13:15;;;;;;;42.70;16.23;;;;;;;1.45;100.00;103681.50;4995797;28;20034;-94
2023/01/23 08:15:41;;;;;;;47.22;17.50;;;;;;;1.48;100.00;103692.78;4977734;28;20031;-92
2023/01/23 08:18:06;;;;;;;41.58;16.15;;;;;;;1.52;100.00;103698.94;4988010;28;20173;-93
2023/01/23 08:20:32;;;;;;;42.33;16.50;;;;;;;1.53;100.00;103701.59;4993930;28;20082;-93
2023/01/23 08:22:58;;;;;;;41.33;15.32;;;;;;;1.59;100.00;103690.84;4987356;28;20066;-92
2023/01/23 08:25:23;;;;;;;39.65;15.52;;;;;;;1.61;100.00;103698.63;4972760;28;20030;-91
2023/01/23 08:27:49;;;;;;;48.10;17.50;;;;;;;1.60;100.00;103697.72;4984824;28;20083;-93
2023/01/23 08:30:14;;;;;;;41.40;16.25;;;;;;;1.63;100.00;103697.03;4976418;28;20514;-93
2023/01/23 08:32:40;;;;;;;44.25;16.40;;;;;;;1.64;100.00;103696.25;4996589;28;20093;-93
